Time;durP1;ratioP1;P1;durP2;ratioP2;P2;SDS_P1;SDS_P2;PMS_P1;PMS_P2;Temp;Humidity;BMP_temperature;BMP_pressure;BME280_temperature;BME280_humidity;BME280_pressure;Samples;Min_cycle;Max_cycle;Signal;HPM_P1;HPM_P2
2023/04/19 00:01:34;;;;;;;7.95;5.25;;;10.40;98.70;;;;;;5022755;28;20359;-84
2023/04/19 00:04:02;;;;;;;7.78;5.18;;;10.40;99.30;;;;;;5011675;28;20030;-84
2023/04/19 00:06:29;;;;;;;7.35;5.05;;;10.40;99.90;;;;;;5023855;28;20790;-81
2023/04/19 00:08:56;;;;;;;6.70;4.40;;;10.40;99.90;;;;;;5022497;28;20061;-79
2023/04/19 00:11:23;;;;;;;7.78;5.35;;;10.40;99.50;;;;;;5027714;28;20037;-80
2023/04/19 00:13:49;;;;;;;11.73;5.97;;;10.30;99.90;;;;;;5028741;28;20045;-81
2023/04/19 00:16:15;;;;;;;7.68;4.95;;;10.30;99.90;;;;;;5033252;28;20030;-80
2023/04/19 00:18:42;;;;;;;8.38;5.55;;;10.30;99.90;;;;;;5034380;28;20045;-79
2023/04/19 00:21:08;;;;;;;6.68;4.70;;;10.30;99.90;;;;;;5029445;28;20391;-81
2023/04/19 00:23:34;;;;;;;8.02;6.10;;;10.40;99.90;;;;;;5031926;28;20369;-80
2023/04/19 00:26:03;;;;;;;8.50;5.20;;;10.30;99.90;;;;;;5031498;28;20040;-85
2023/04/19 00:28:30;;;;;;;7.90;5.10;;;10.30;99.90;;;;;;5032262;28;20033;-81
2023/04/19 00:30:56;;;;;;;7.22;5.00;;;10.30;99.90;;;;;;5024384;28;20050;-81
2023/04/19 00:33:22;;;;;;;7.43;5.53;;;10.30;99.90;;;;;;5031347;28;20258;-80
2023/04/19 00:35:48;;;;;;;8.73;5.60;;;10.30;99.90;;;;;;5030326;28;20382;-79
2023/04/19 00:38:15;;;;;;;8.02;4.97;;;10.30;99.90;;;;;;5029624;28;20033;-82
2023/04/19 00:40:45;;;;;;;8.23;4.97;;;10.30;99.90;;;;;;5022402;28;20036;-82
2023/04/19 00:43:15;;;;;;;6.07;4.28;;;10.20;99.90;;;;;;5033101;28;20052;-80
2023/04/19 00:45:41;;;;;;;8.37;5.37;;;10.20;99.90;;;;;;5034352;28;20048;-80
2023/04/19 00:48:08;;;;;;;6.95;4.72;;;10.20;99.90;;;;;;5033216;28;20665;-80
2023/04/19 00:50:34;;;;;;;10.05;5.25;;;10.20;99.90;;;;;;5028656;28;20458;-80
2023/04/19 00:53:02;;;;;;;7.35;4.38;;;10.20;99.90;;;;;;5029299;28;20033;-85
2023/04/19 00:55:30;;;;;;;8.35;5.32;;;10.20;99.90;;;;;;5031820;28;20042;-83
2023/04/19 00:57:56;;;;;;;6.75;4.88;;;10.20;99.90;;;;;;5020589;28;20475;-79
2023/04/19 01:00:22;;;;;;;8.60;5.00;;;10.20;99.90;;;;;;5030282;28;20044;-80
2023/04/19 01:02:51;;;;;;;6.80;5.20;;;10.20;99.90;;;;;;5021919;28;20403;-81
2023/04/19 01:05:18;;;;;;;8.20;5.53;;;10.20;99.90;;;;;;5029378;28;20042;-82
2023/04/19 01:07:44;;;;;;;9.98;5.35;;;10.20;99.90;;;;;;5026965;28;20030;-80
2023/04/19 01:10:14;;;;;;;8.00;4.80;;;10.20;99.90;;;;;;5021334;28;20057;-82
2023/04/19 01:12:40;;;;;;;7.25;5.22;;;10.20;99.90;;;;;;5024220;28;20046;-81
2023/04/19 01:15:07;;;;;;;7.57;5.10;;;10.20;99.90;;;;;;5031271;28;20045;-80
2023/04/19 01:17:33;;;;;;;9.60;5.03;;;10.20;99.90;;;;;;5027091;28;20301;-79
2023/04/19 01:20:01;;;;;;;7.35;5.10;;;10.10;99.90;;;;;;5026630;28;20042;-79
2023/04/19 01:22:28;;;;;;;7.88;5.15;;;10.10;99.90;;;;;;5030325;28;20038;-82
2023/04/19 01:24:56;;;;;;;7.90;5.50;;;10.10;99.90;;;;;;5030471;28;20033;-81
2023/04/19 01:27:22;;;;;;;8.68;5.25;;;10.20;99.90;;;;;;5029419;28;20038;-80
2023/04/19 01:29:50;;;;;;;11.68;6.28;;;10.20;99.90;;;;;;5025420;28;20037;-81
2023/04/19 01:32:16;;;;;;;8.13;5.28;;;10.10;99.90;;;;;;5024050;28;20068;-81
2023/04/19 01:34:43;;;;;;;7.03;4.47;;;10.10;99.90;;;;;;5031215;28;20036;-82
2023/04/19 01:37:09;;;;;;;7.45;4.95;;;10.10;99.90;;;;;;5021979;28;20037;-81
2023/04/19 01:39:35;;;;;;;8.20;4.68;;;10.10;99.90;;;;;;5024344;28;20053;-80
2023/04/19 01:42:01;;;;;;;7.32;5.18;;;10.10;99.90;;;;;;5029464;28;20060;-79
2023/04/19 01:44:29;;;;;;;6.93;4.55;;;10.10;99.90;;;;;;5027275;28;20051;-82
2023/04/19 01:46:55;;;;;;;6.43;4.85;;;10.10;99.90;;;;;;5029316;28;20041;-81
2023/04/19 01:49:21;;;;;;;9.70;6.78;;;10.10;99.90;;;;;;5030821;28;20376;-81
2023/04/19 01:51:48;;;;;;;9.23;5.78;;;10.10;99.90;;;;;;5039260;28;20068;-82
2023/04/19 01:54:14;;;;;;;12.35;5.95;;;10.10;99.90;;;;;;5029322;28;20064;-80
2023/04/19 01:56:40;;;;;;;9.02;5.32;;;10.10;99.90;;;;;;5030033;28;20041;-81
2023/04/19 01:59:07;;;;;;;8.27;5.18;;;10.10;99.90;;;;;;5026932;28;20041;-85
2023/04/19 02:01:33;;;;;;;7.00;4.63;;;10.00;99.90;;;;;;5024215;28;20042;-82
2023/04/19 02:04:00;;;;;;;7.70;5.03;;;10.00;99.90;;;;;;5030790;28;20029;-83
2023/04/19 02:06:27;;;;;;;7.57;4.50;;;10.00;99.90;;;;;;5028496;28;20037;-80
2023/04/19 02:08:53;;;;;;;8.57;6.07;;;10.10;99.90;;;;;;5030492;28;20037;-82
2023/04/19 02:11:19;;;;;;;7.32;4.68;;;10.00;99.90;;;;;;5027862;28;20052;-80
2023/04/19 02:13:46;;;;;;;6.25;4.22;;;10.00;99.90;;;;;;5028744;28;20049;-82
2023/04/19 02:16:12;;;;;;;7.80;4.63;;;10.00;99.90;;;;;;5034211;28;20045;-81
2023/04/19 02:18:39;;;;;;;7.82;5.10;;;10.00;99.90;;;;;;5026192;28;20041;-81
2023/04/19 02:21:07;;;;;;;6.75;4.65;;;10.00;99.90;;;;;;5029292;28;20384;-83
2023/04/19 02:23:34;;;;;;;6.60;4.95;;;10.00;99.90;;;;;;5025805;28;20047;-82
2023/04/19 02:26:02;;;;;;;7.20;4.45;;;10.00;99.90;;;;;;5026316;28;20046;-83
2023/04/19 02:28:31;;;;;;;6.97;4.88;;;10.00;99.90;;;;;;5026357;28;20029;-81
2023/04/19 02:30:58;;;;;;;6.53;4.55;;;10.00;99.90;;;;;;5014921;28;20030;-82
2023/04/19 02:33:27;;;;;;;7.40;4.90;;;10.00;99.90;;;;;;5022222;28;20049;-80
2023/04/19 02:35:54;;;;;;;7.45;4.70;;;10.00;99.90;;;;;;5023403;28;20483;-83
2023/04/19 02:38:20;;;;;;;12.13;7.32;;;10.00;99.90;;;;;;5022121;28;20041;-82
2023/04/19 02:40:46;;;;;;;12.93;4.60;;;10.00;99.90;;;;;;5015744;28;20033;-83
2023/04/19 02:43:12;;;;;;;9.85;6.10;;;10.00;99.90;;;;;;5023102;28;20045;-83
2023/04/19 02:45:38;;;;;;;11.60;6.55;;;10.00;99.90;;;;;;5034333;28;20052;-82
2023/04/19 02:48:05;;;;;;;6.93;4.63;;;10.00;99.90;;;;;;5035151;28;20025;-84
2023/04/19 02:50:32;;;;;;;11.48;7.20;;;10.00;99.90;;;;;;5029285;28;20474;-82
2023/04/19 02:52:58;;;;;;;7.35;5.00;;;9.90;99.90;;;;;;5028448;28;20038;-81
2023/04/19 02:55:26;;;;;;;20.40;11.02;;;10.00;99.90;;;;;;5027820;28;20584;-80
2023/04/19 02:58:02;;;;;;;11.38;6.03;;;10.00;99.90;;;;;;5024596;28;20360;-82
2023/04/19 03:00:29;;;;;;;6.22;5.05;;;10.00;99.90;;;;;;5035841;28;20056;-81
2023/04/19 03:03:03;;;;;;;7.18;5.07;;;9.90;99.90;;;;;;5017679;28;20040;-86
2023/04/19 03:05:31;;;;;;;9.30;5.50;;;9.90;99.90;;;;;;5030932;28;20037;-82
2023/04/19 03:07:57;;;;;;;7.80;4.53;;;9.90;99.90;;;;;;5028376;28;20384;-82
2023/04/19 03:10:23;;;;;;;6.18;4.32;;;9.90;99.90;;;;;;5033637;28;20245;-81
2023/04/19 03:12:49;;;;;;;8.13;4.78;;;9.90;99.90;;;;;;5032541;28;20489;-82
2023/04/19 03:15:17;;;;;;;8.07;5.30;;;9.90;99.90;;;;;;5022065;28;20042;-82
2023/04/19 03:17:44;;;;;;;11.35;5.05;;;9.90;99.90;;;;;;5024423;28;20049;-81
2023/04/19 03:20:11;;;;;;;6.95;5.18;;;9.90;99.90;;;;;;5044051;28;20045;-82
2023/04/19 03:22:38;;;;;;;10.05;6.13;;;9.90;99.90;;;;;;5030978;28;20511;-82
2023/04/19 03:25:05;;;;;;;7.05;4.88;;;9.90;99.90;;;;;;5030692;28;20042;-82
2023/04/19 03:27:35;;;;;;;8.63;6.60;;;9.80;99.90;;;;;;5024385;28;20045;-80
2023/04/19 03:30:06;;;;;;;17.55;10.45;;;9.80;99.90;;;;;;5027329;28;20046;-83
2023/04/19 03:32:32;;;;;;;8.15;6.60;;;9.80;99.90;;;;;;5039253;28;20401;-82
2023/04/19 03:34:59;;;;;;;8.38;5.53;;;9.80;99.90;;;;;;5042054;28;20049;-82
2023/04/19 03:37:25;;;;;;;8.82;6.45;;;9.80;99.90;;;;;;5028253;28;20221;-82
2023/04/19 03:39:52;;;;;;;8.85;5.45;;;9.70;99.90;;;;;;5026630;28;20049;-81
2023/04/19 03:42:25;;;;;;;7.90;5.85;;;9.70;99.90;;;;;;5011254;28;20052;-83
2023/04/19 03:44:57;;;;;;;7.32;4.20;;;9.60;99.90;;;;;;5024522;28;20473;-82
2023/04/19 03:47:25;;;;;;;8.57;6.13;;;9.50;99.90;;;;;;5028389;28;20046;-83
2023/04/19 03:49:55;;;;;;;7.13;5.40;;;9.50;99.90;;;;;;5037591;28;20045;-82
2023/04/19 03:52:21;;;;;;;7.85;5.15;;;9.50;99.90;;;;;;5012489;28;20038;-82
2023/04/19 03:54:47;;;;;;;9.35;6.25;;;9.50;99.90;;;;;;5032533;28;20060;-82
2023/04/19 03:57:25;;;;;;;7.97;5.53;;;9.50;99.90;;;;;;5033249;28;20042;-82
2023/04/19 03:59:51;;;;;;;9.82;7.22;;;9.50;99.90;;;;;;5033332;28;20039;-82
2023/04/19 04:02:18;;;;;;;8.75;6.20;;;9.50;99.90;;;;;;5031869;28;20056;-82
2023/04/19 04:04:44;;;;;;;8.38;5.55;;;9.40;99.90;;;;;;5024928;28;20038;-82
2023/04/19 04:07:10;;;;;;;6.35;5.50;;;9.30;99.90;;;;;;5025002;28;20041;-85
2023/04/19 04:09:37;;;;;;;9.35;4.95;;;9.30;99.90;;;;;;5029167;28;20041;-81
2023/04/19 04:12:03;;;;;;;7.97;5.25;;;9.20;99.90;;;;;;5031936;28;20354;-82
2023/04/19 04:14:30;;;;;;;8.15;5.63;;;9.20;99.90;;;;;;5026189;28;20046;-83
2023/04/19 04:16:57;;;;;;;10.98;5.68;;;9.20;99.90;;;;;;5029475;28;20041;-83
2023/04/19 04:19:25;;;;;;;7.63;5.22;;;9.10;99.90;;;;;;5026087;28;20048;-82
2023/04/19 04:21:51;;;;;;;15.45;9.63;;;9.00;99.90;;;;;;5033507;28;20040;-82
2023/04/19 04:24:19;;;;;;;14.45;9.48;;;8.90;99.90;;;;;;5031407;28;20038;-82
2023/04/19 04:27:02;;;;;;;10.23;5.32;;;8.90;99.90;;;;;;5034628;28;20494;-82
2023/04/19 04:29:32;;;;;;;7.32;4.85;;;8.80;99.90;;;;;;5032227;28;20037;-82
2023/04/19 04:32:00;;;;;;;7.25;4.78;;;8.80;99.90;;;;;;5024848;28;20049;-82
2023/04/19 04:34:32;;;;;;;9.68;6.35;;;8.80;99.90;;;;;;5023134;28;20040;-82
2023/04/19 04:37:07;;;;;;;8.35;5.72;;;8.80;99.90;;;;;;5029217;28;20037;-82
2023/04/19 04:39:38;;;;;;;7.10;5.07;;;8.80;99.90;;;;;;5038872;28;20502;-82
2023/04/19 04:42:07;;;;;;;8.02;5.05;;;8.80;99.90;;;;;;5026946;28;20049;-82
2023/04/19 04:44:35;;;;;;;8.57;5.45;;;8.80;99.90;;;;;;5023490;28;20133;-82
2023/04/19 04:47:01;;;;;;;8.35;5.57;;;8.90;99.90;;;;;;5030781;28;20045;-82
2023/04/19 04:49:30;;;;;;;8.80;6.00;;;8.90;99.90;;;;;;5023615;28;20140;-82
2023/04/19 04:51:57;;;;;;;7.28;5.30;;;8.90;99.90;;;;;;5023527;28;20052;-81
2023/04/19 04:54:25;;;;;;;7.30;5.55;;;9.00;99.90;;;;;;5024528;28;20049;-82
2023/04/19 04:56:52;;;;;;;11.82;5.88;;;9.00;99.90;;;;;;5027529;28;20395;-81
2023/04/19 04:59:18;;;;;;;8.35;5.28;;;9.10;99.90;;;;;;5028350;28;20045;-81
2023/04/19 05:01:47;;;;;;;7.28;5.32;;;9.10;99.90;;;;;;5029605;28;20049;-81
2023/04/19 05:04:15;;;;;;;7.00;5.03;;;9.10;99.90;;;;;;5016095;28;20038;-82
2023/04/19 05:06:43;;;;;;;7.75;4.95;;;9.20;99.90;;;;;;5029903;28;20498;-82
2023/04/19 05:09:10;;;;;;;8.27;5.47;;;9.30;99.90;;;;;;5023615;28;20060;-85
2023/04/19 05:11:36;;;;;;;6.78;4.55;;;9.40;99.90;;;;;;5034040;28;20490;-82
2023/04/19 05:14:03;;;;;;;7.85;5.78;;;9.90;99.90;;;;;;5030679;28;20479;-82
2023/04/19 05:16:31;;;;;;;7.90;5.55;;;10.60;99.90;;;;;;5023534;28;20675;-81
2023/04/19 05:18:58;;;;;;;7.63;4.78;;;11.00;99.90;;;;;;5029433;28;20033;-81
2023/04/19 05:21:33;;;;;;;7.25;5.22;;;11.10;99.90;;;;;;5036884;28;20053;-81
2023/04/19 05:24:03;;;;;;;5.88;4.70;;;11.30;99.90;;;;;;5029825;28;20048;-82
2023/04/19 05:26:29;;;;;;;6.60;4.85;;;11.40;93.30;;;;;;5029413;28;20029;-81
2023/04/19 05:28:56;;;;;;;7.30;4.43;;;11.20;92.30;;;;;;5039163;28;20033;-82
2023/04/19 05:31:34;;;;;;;9.07;5.47;;;10.90;99.90;;;;;;5032639;28;20050;-79
2023/04/19 05:34:30;;;;;;;8.10;5.40;;;10.80;99.90;;;;;;5029097;28;20042;-78
2023/04/19 05:36:57;;;;;;;9.25;5.32;;;10.80;99.90;;;;;;5020698;28;20402;-79
2023/04/19 05:39:25;;;;;;;8.40;4.63;;;10.90;99.90;;;;;;5024628;28;20045;-79
2023/04/19 05:41:51;;;;;;;8.52;5.05;;;10.80;99.90;;;;;;5031059;28;20050;-79
2023/04/19 05:44:17;;;;;;;6.38;4.43;;;10.80;99.90;;;;;;5030177;28;20056;-80
2023/04/19 05:46:44;;;;;;;7.40;5.18;;;10.80;99.90;;;;;;5027266;28;20455;-79
2023/04/19 05:49:12;;;;;;;6.95;4.88;;;11.00;99.90;;;;;;5020193;28;20474;-82
2023/04/19 05:51:59;;;;;;;9.35;5.20;;;11.10;99.90;;;;;;5027212;28;20050;-80
2023/04/19 05:54:40;;;;;;;6.93;4.82;;;11.30;99.90;;;;;;5021702;28;20106;-81
2023/04/19 05:57:06;;;;;;;6.82;5.05;;;11.30;94.00;;;;;;5022907;28;20494;-78
2023/04/19 05:59:33;;;;;;;8.00;4.50;;;11.30;98.00;;;;;;5027567;28;20049;-80
2023/04/19 06:02:00;;;;;;;8.32;5.30;;;11.40;99.90;;;;;;5028183;28;20466;-79
2023/04/19 06:04:26;;;;;;;7.53;5.13;;;11.60;92.50;;;;;;5027848;28;20411;-80
2023/04/19 06:06:53;;;;;;;7.43;4.82;;;11.90;59.20;;;;;;5030967;28;20582;-81
2023/04/19 06:09:19;;;;;;;9.55;5.88;;;11.70;59.10;;;;;;5029905;28;20046;-79
2023/04/19 06:11:46;;;;;;;8.02;5.38;;;11.40;92.00;;;;;;5030928;28;20029;-78
2023/04/19 06:14:12;;;;;;;8.25;5.38;;;11.40;90.20;;;;;;5022797;28;20054;-83
2023/04/19 06:16:39;;;;;;;6.47;4.28;;;11.50;90.90;;;;;;5030498;28;20041;-79
2023/04/19 06:19:06;;;;;;;8.25;5.13;;;11.40;95.20;;;;;;5030811;28;20040;-77
2023/04/19 06:21:33;;;;;;;6.72;4.38;;;11.40;91.10;;;;;;5019780;28;20045;-77
2023/04/19 06:23:59;;;;;;;9.23;6.03;;;11.30;97.60;;;;;;5029354;28;20583;-77
2023/04/19 06:26:26;;;;;;;18.30;14.30;;;11.30;98.20;;;;;;5022414;28;20037;-78
2023/04/19 06:28:52;;;;;;;9.60;6.10;;;11.30;99.90;;;;;;5030863;28;20045;-78
2023/04/19 06:31:21;;;;;;;9.88;6.63;;;11.50;94.90;;;;;;5030767;28;20034;-75
2023/04/19 06:33:47;;;;;;;9.77;6.32;;;11.60;71.90;;;;;;5029157;28;20034;-75
2023/04/19 06:36:13;;;;;;;7.13;5.20;;;11.70;68.20;;;;;;5029882;28;20037;-85
2023/04/19 06:38:40;;;;;;;9.48;6.25;;;11.80;66.20;;;;;;5026797;28;20495;-78
2023/04/19 06:41:08;;;;;;;9.35;5.80;;;12.00;48.90;;;;;;5028763;28;20037;-77
2023/04/19 06:43:34;;;;;;;9.40;6.45;;;12.10;37.80;;;;;;5028334;28;20045;-77
2023/04/19 06:46:03;;;;;;;7.90;6.03;;;12.40;22.90;;;;;;5028874;28;20467;-79
2023/04/19 06:48:29;;;;;;;8.68;5.88;;;12.80;5.00;;;;;;5025964;28;20375;-79
2023/04/19 06:50:56;;;;;;;7.85;5.40;;;13.00;1.60;;;;;;5030195;28;20038;-79
2023/04/19 06:53:22;;;;;;;8.20;5.93;;;12.60;10.40;;;;;;5027094;28;20038;-80
2023/04/19 06:55:52;;;;;;;12.98;8.77;;;12.70;13.00;;;;;;5028659;28;20034;-78
2023/04/19 06:58:18;;;;;;;8.70;6.30;;;13.90;1.00;;;;;;5030875;28;20167;-79
2023/04/19 07:00:44;;;;;;;8.50;5.05;;;15.50;1.00;;;;;;5030639;28;20040;-79
2023/04/19 07:03:10;;;;;;;7.22;4.82;;;16.00;1.00;;;;;;5031148;28;20033;-80
2023/04/19 07:05:40;;;;;;;6.88;4.95;;;15.40;1.00;;;;;;5030089;28;20033;-80
2023/04/19 07:08:06;;;;;;;6.30;4.60;;;15.20;1.00;;;;;;5045925;28;20050;-79
2023/04/19 07:10:32;;;;;;;7.85;5.60;;;15.40;1.00;;;;;;5030038;28;20034;-79
2023/04/19 07:12:58;;;;;;;5.90;4.63;;;15.40;1.00;;;;;;5038020;28;20033;-79
2023/04/19 07:15:24;;;;;;;6.13;4.22;;;14.50;1.00;;;;;;5025640;28;20050;-80
2023/04/19 07:17:51;;;;;;;6.95;4.55;;;14.50;1.00;;;;;;5025972;28;20053;-79
2023/04/19 07:20:17;;;;;;;7.07;4.88;;;14.40;1.00;;;;;;5023927;28;20489;-78
2023/04/19 07:22:43;;;;;;;5.70;4.55;;;14.20;1.00;;;;;;5029640;28;20029;-78
2023/04/19 07:25:09;;;;;;;5.72;4.25;;;14.50;1.00;;;;;;5026015;28;20040;-78
2023/04/19 07:27:36;;;;;;;6.00;4.43;;;14.20;1.00;;;;;;5029079;28;20132;-76
2023/04/19 07:30:02;;;;;;;7.38;4.85;;;14.90;1.00;;;;;;5042447;28;20034;-77
2023/04/19 07:32:30;;;;;;;5.95;5.13;;;14.40;1.00;;;;;;5033779;28;20486;-78
2023/04/19 07:34:56;;;;;;;8.82;5.00;;;13.90;1.00;;;;;;5034258;28;20037;-78
2023/04/19 07:37:22;;;;;;;7.53;5.00;;;13.30;1.00;;;;;;5027245;28;20030;-80
2023/04/19 07:39:48;;;;;;;6.82;4.40;;;12.90;2.80;;;;;;5034438;28;20411;-78
2023/04/19 07:42:14;;;;;;;7.72;5.50;;;12.80;12.60;;;;;;5030584;28;20053;-78
2023/04/19 07:44:40;;;;;;;6.65;5.20;;;12.60;32.10;;;;;;5044458;28;20052;-78
2023/04/19 07:47:06;;;;;;;7.45;5.78;;;12.60;33.00;;;;;;5028880;28;20041;-77
2023/04/19 07:49:34;;;;;;;6.35;4.40;;;12.60;37.50;;;;;;5032846;28;20128;-78
2023/04/19 07:52:03;;;;;;;7.90;5.20;;;12.50;46.90;;;;;;5029966;28;20064;-77
2023/04/19 07:54:30;;;;;;;6.22;4.45;;;12.50;55.70;;;;;;5029392;28;20040;-77
2023/04/19 07:56:57;;;;;;;7.80;5.18;;;12.30;69.90;;;;;;5031888;28;20490;-77
2023/04/19 07:59:24;;;;;;;6.68;5.72;;;12.30;69.80;;;;;;5032088;28;20029;-76
2023/04/19 08:01:50;;;;;;;7.97;5.55;;;12.20;72.70;;;;;;5033785;28;20390;-75
2023/04/19 08:04:18;;;;;;;7.85;5.30;;;12.20;73.60;;;;;;5034127;28;20050;-80
2023/04/19 08:06:45;;;;;;;8.18;5.72;;;12.20;82.90;;;;;;5029287;28;20458;-77
2023/04/19 08:09:11;;;;;;;9.07;5.93;;;12.10;87.00;;;;;;5033759;28;20037;-78
2023/04/19 08:11:37;;;;;;;8.45;6.00;;;12.20;93.70;;;;;;5030797;28;20268;-76
2023/04/19 08:14:03;;;;;;;7.45;5.90;;;12.20;96.30;;;;;;5032203;28;20060;-75
2023/04/19 08:16:29;;;;;;;7.55;5.25;;;12.20;94.60;;;;;;5031974;28;20033;-77
2023/04/19 08:18:55;;;;;;;6.95;5.68;;;12.50;66.40;;;;;;5026739;28;20040;-75
2023/04/19 08:21:21;;;;;;;8.88;5.90;;;12.60;60.30;;;;;;5032180;28;20029;-76
2023/04/19 08:23:47;;;;;;;10.38;6.20;;;12.60;31.30;;;;;;5030597;28;20029;-78
2023/04/19 08:26:14;;;;;;;7.35;5.68;;;12.60;64.20;;;;;;5031400;28;20033;-78
2023/04/19 08:28:40;;;;;;;9.43;6.82;;;12.60;69.30;;;;;;5033053;28;20037;-77
2023/04/19 08:31:06;;;;;;;8.57;6.40;;;12.50;63.50;;;;;;5034028;28;20371;-77
2023/04/19 08:33:32;;;;;;;9.35;6.85;;;12.30;72.70;;;;;;5031003;28;20056;-77
2023/04/19 08:35:59;;;;;;;8.82;6.00;;;12.20;89.40;;;;;;5032168;28;20383;-78
2023/04/19 08:38:25;;;;;;;10.10;5.97;;;12.30;93.60;;;;;;5032733;28;20037;-78
2023/04/19 08:40:52;;;;;;;10.63;6.13;;;12.40;94.00;;;;;;5024152;28;20371;-77
2023/04/19 08:43:19;;;;;;;9.60;6.60;;;12.50;89.00;;;;;;5031768;28;20041;-81
2023/04/19 08:45:49;;;;;;;10.73;6.90;;;12.30;79.40;;;;;;5031521;28;20391;-79
2023/04/19 08:48:16;;;;;;;9.73;6.45;;;12.50;65.70;;;;;;5039598;28;20026;-76
2023/04/19 08:50:47;;;;;;;7.90;5.75;;;12.40;72.20;;;;;;5032537;28;20383;-77
2023/04/19 08:53:15;;;;;;;7.95;5.78;;;12.50;63.60;;;;;;5024633;28;20034;-77
2023/04/19 08:55:44;;;;;;;13.13;7.22;;;12.50;69.80;;;;;;5028483;28;20044;-77
2023/04/19 08:58:10;;;;;;;12.25;7.38;;;12.60;67.70;;;;;;5032161;28;20030;-79
2023/04/19 09:00:40;;;;;;;10.32;6.72;;;12.60;58.00;;;;;;5032393;28;20022;-78
2023/04/19 09:03:10;;;;;;;8.05;6.20;;;12.60;69.20;;;;;;5031435;28;20034;-79
2023/04/19 09:05:36;;;;;;;11.15;6.40;;;12.60;52.10;;;;;;5029598;28;20029;-79
2023/04/19 09:08:21;;;;;;;8.95;6.20;;;12.40;59.10;;;;;;5031143;28;20040;-78
2023/04/19 09:10:56;;;;;;;8.95;5.90;;;12.50;53.30;;;;;;5030918;28;20046;-78
2023/04/19 09:13:22;;;;;;;8.35;7.03;;;12.50;56.00;;;;;;5027576;28;20499;-76
2023/04/19 09:15:48;;;;;;;8.05;5.57;;;12.60;32.40;;;;;;5029776;28;20037;-78
2023/04/19 09:18:15;;;;;;;9.45;6.72;;;12.70;24.50;;;;;;5027417;28;20041;-79
2023/04/19 09:20:43;;;;;;;8.90;6.28;;;13.10;24.60;;;;;;5028127;28;20033;-76
2023/04/19 09:23:14;;;;;;;7.07;5.88;;;13.20;6.30;;;;;;5028744;28;20060;-76
2023/04/19 09:25:56;;;;;;;7.93;5.97;;;13.30;3.60;;;;;;5020890;28;20042;-76
2023/04/19 09:28:23;;;;;;;10.50;6.45;;;13.40;6.80;;;;;;5030491;28;20038;-81
2023/04/19 09:30:49;;;;;;;8.65;6.00;;;13.70;2.80;;;;;;5030164;28;20045;-76
2023/04/19 09:33:45;;;;;;;8.45;6.13;;;13.80;1.00;;;;;;5025985;28;20030;-79
2023/04/19 09:36:27;;;;;;;8.27;6.10;;;13.70;1.00;;;;;;5024840;28;20052;-78
2023/04/19 09:38:53;;;;;;;9.13;5.22;;;13.30;1.00;;;;;;5031910;28;20029;-77
2023/04/19 09:41:19;;;;;;;11.00;6.25;;;13.40;1.00;;;;;;5027713;28;20077;-77
2023/04/19 09:43:46;;;;;;;7.90;6.22;;;13.20;4.30;;;;;;5031697;28;20042;-78
2023/04/19 09:46:47;;;;;;;8.02;5.20;;;13.00;9.10;;;;;;5030487;28;20033;-79
2023/04/19 09:49:18;;;;;;;9.55;5.50;;;13.00;10.50;;;;;;5031046;28;20049;-79
2023/04/19 09:51:49;;;;;;;8.02;5.88;;;12.90;2.80;;;;;;5031914;28;20042;-79
2023/04/19 09:54:17;;;;;;;13.23;6.05;;;12.90;11.10;;;;;;5032059;28;20037;-78
2023/04/19 09:56:44;;;;;;;9.80;6.07;;;12.70;1.00;;;;;;5030060;28;20048;-76
2023/04/19 09:59:11;;;;;;;13.05;5.65;;;12.60;2.30;;;;;;5030451;28;20029;-79
2023/04/19 10:01:44;;;;;;;10.82;5.47;;;12.60;8.60;;;;;;5031870;28;20406;-78
2023/04/19 10:04:20;;;;;;;20.58;5.88;;;12.60;8.90;;;;;;5030835;28;20038;-78
2023/04/19 10:06:48;;;;;;;10.63;5.40;;;12.70;5.50;;;;;;5021186;28;20034;-78
2023/04/19 10:09:15;;;;;;;14.75;6.50;;;12.80;4.30;;;;;;5022489;28;20034;-76
2023/04/19 10:11:46;;;;;;;10.32;7.15;;;12.90;1.00;;;;;;5026711;28;20048;-77
2023/04/19 10:14:14;;;;;;;;;;;12.70;1.00;;;;;;5027680;28;20037;-78
2023/04/19 10:16:40;;;;;;;14.50;5.38;;;12.60;1.90;;;;;;5029460;28;19909;-76
2023/04/19 10:19:15;;;;;;;15.93;4.85;;;12.60;1.00;;;;;;5028569;28;20036;-76
2023/04/19 10:21:42;;;;;;;13.10;5.55;;;12.50;1.00;;;;;;5023929;28;20037;-77
2023/04/19 10:24:11;;;;;;;10.52;5.55;;;12.40;1.00;;;;;;5021541;28;20470;-80
2023/04/19 10:27:10;;;;;;;16.13;5.28;;;12.40;1.00;;;;;;5021377;28;20038;-78
2023/04/19 10:30:00;;;;;;;14.23;4.90;;;12.50;1.00;;;;;;5024047;28;20056;-77
2023/04/19 10:32:27;;;;;;;8.88;5.28;;;12.40;1.00;;;;;;5029415;28;20041;-78
2023/04/19 10:34:54;;;;;;;7.72;4.90;;;12.50;1.00;;;;;;5030381;28;20037;-78
2023/04/19 10:37:25;;;;;;;14.52;6.18;;;12.60;1.00;;;;;;5029347;28;20034;-78
2023/04/19 10:39:51;;;;;;;7.07;4.85;;;12.70;1.00;;;;;;5030144;28;20372;-77
2023/04/19 10:42:17;;;;;;;7.75;5.50;;;12.70;1.00;;;;;;5030100;28;20050;-77
2023/04/19 10:45:21;;;;;;;6.88;5.00;;;12.90;1.00;;;;;;5030585;28;20197;-80
2023/04/19 10:47:50;;;;;;;7.38;5.00;;;13.00;1.00;;;;;;5014698;28;20045;-77
2023/04/19 10:50:17;;;;;;;7.53;4.68;;;12.90;1.00;;;;;;5028951;28;20030;-79
2023/04/19 10:52:43;;;;;;;6.50;4.35;;;13.10;1.00;;;;;;5031100;28;20049;-79
2023/04/19 10:55:15;;;;;;;7.10;4.25;;;13.50;1.00;;;;;;5025920;28;20391;-78
2023/04/19 10:58:01;;;;;;;7.50;5.25;;;13.80;1.00;;;;;;5020955;28;20030;-79
2023/04/19 11:00:30;;;;;;;8.05;5.53;;;14.40;1.00;;;;;;5030136;28;20056;-81
2023/04/19 11:02:57;;;;;;;9.38;4.80;;;14.30;1.00;;;;;;5030535;28;20037;-82
2023/04/19 11:05:24;;;;;;;9.95;4.93;;;14.40;1.00;;;;;;5026318;28;20419;-85
2023/04/19 11:07:50;;;;;;;9.52;5.32;;;14.90;1.00;;;;;;5042524;28;20057;-82
2023/04/19 11:10:30;;;;;;;8.90;4.80;;;14.90;1.00;;;;;;5033137;28;20037;-81
2023/04/19 11:12:57;;;;;;;5.17;2.87;;;14.90;1.00;;;;;;5030257;28;20359;-81
2023/04/19 11:15:24;;;;;;;7.53;4.88;;;14.70;1.00;;;;;;5029401;28;20048;-85
2023/04/19 11:17:51;;;;;;;7.70;4.40;;;14.70;1.00;;;;;;5034124;28;20030;-80
2023/04/19 11:20:22;;;;;;;4.70;3.28;;;14.50;1.00;;;;;;5029872;28;20037;-80
2023/04/19 11:22:48;;;;;;;4.07;2.78;;;14.40;1.00;;;;;;5032598;28;20473;-82
2023/04/19 11:25:17;;;;;;;4.88;3.40;;;14.40;1.00;;;;;;5034379;28;20029;-80
2023/04/19 11:27:48;;;;;;;5.38;2.90;;;14.30;1.00;;;;;;5028862;28;20029;-81
2023/04/19 11:30:16;;;;;;;5.85;2.60;;;14.10;1.00;;;;;;5028190;28;20410;-81
2023/04/19 11:32:53;;;;;;;5.95;3.38;;;14.10;1.00;;;;;;5026944;28;20049;-80
2023/04/19 11:35:25;;;;;;;17.13;4.22;;;14.20;1.00;;;;;;5029968;28;20398;-82
2023/04/19 11:37:52;;;;;;;11.63;3.03;;;14.30;1.00;;;;;;5027482;28;20831;-81
2023/04/19 11:40:20;;;;;;;5.38;2.75;;;14.10;1.00;;;;;;5025709;28;20045;-80
2023/04/19 11:42:53;;;;;;;4.28;2.90;;;14.30;1.00;;;;;;5028719;28;20049;-80
2023/04/19 11:45:37;;;;;;;11.55;3.78;;;14.50;1.00;;;;;;5034496;28;20056;-80
2023/04/19 11:48:21;;;;;;;4.72;2.65;;;14.70;1.00;;;;;;5031568;28;20056;-81
2023/04/19 11:50:48;;;;;;;5.50;3.30;;;14.90;1.00;;;;;;5032312;28;20265;-81
2023/04/19 11:53:22;;;;;;;4.63;2.92;;;14.90;1.00;;;;;;5033834;28;20420;-81
2023/04/19 11:55:50;;;;;;;3.47;2.22;;;14.80;1.00;;;;;;5046680;28;20483;-79
2023/04/19 11:58:28;;;;;;;4.95;2.13;;;14.80;1.00;;;;;;5011679;28;20422;-79
2023/04/19 12:01:07;;;;;;;3.17;2.10;;;14.50;1.00;;;;;;5029081;28;20049;-81
2023/04/19 12:03:39;;;;;;;4.20;2.00;;;14.40;1.00;;;;;;5030142;28;20033;-77
2023/04/19 12:06:09;;;;;;;4.22;2.67;;;14.40;1.00;;;;;;5044095;28;20029;-78
2023/04/19 12:08:46;;;;;;;4.68;2.28;;;14.50;1.00;;;;;;5028511;28;20038;-80
2023/04/19 12:11:13;;;;;;;3.72;2.20;;;14.60;1.00;;;;;;5028450;28;20467;-79
2023/04/19 12:13:39;;;;;;;3.55;2.53;;;14.70;1.00;;;;;;5027650;28;20463;-77
2023/04/19 12:16:07;;;;;;;4.53;3.38;;;15.20;1.00;;;;;;5031476;28;20041;-77
2023/04/19 12:18:44;;;;;;;4.78;2.60;;;15.40;1.00;;;;;;5032723;28;20379;-78
2023/04/19 12:21:12;;;;;;;5.03;2.88;;;15.10;1.00;;;;;;5032038;28;20463;-78
2023/04/19 12:23:38;;;;;;;4.20;2.40;;;15.10;1.00;;;;;;5027265;28;20029;-78
2023/04/19 12:26:04;;;;;;;4.32;2.80;;;15.40;1.00;;;;;;5031812;28;20415;-78
2023/04/19 12:28:30;;;;;;;4.25;2.25;;;15.50;1.00;;;;;;5026361;28;20094;-79
2023/04/19 12:30:56;;;;;;;4.15;2.30;;;15.30;1.00;;;;;;5028821;28;20048;-79
2023/04/19 12:33:22;;;;;;;3.58;1.77;;;15.10;1.00;;;;;;5032454;28;20041;-80
2023/04/19 12:35:49;;;;;;;7.80;3.65;;;15.40;1.00;;;;;;5027712;28;20383;-80
2023/04/19 12:38:15;;;;;;;6.22;2.67;;;15.90;1.00;;;;;;5032478;28;20037;-83
2023/04/19 12:40:44;;;;;;;4.55;2.60;;;15.80;1.00;;;;;;5026235;28;20041;-79
2023/04/19 12:43:10;;;;;;;6.47;4.25;;;15.40;1.00;;;;;;5024770;28;20045;-77
2023/04/19 12:45:38;;;;;;;6.55;3.95;;;15.30;1.00;;;;;;5031540;28;20037;-78
2023/04/19 12:48:05;;;;;;;4.60;3.47;;;15.60;1.00;;;;;;5033347;28;20045;-80
2023/04/19 12:50:32;;;;;;;4.47;2.85;;;15.90;1.00;;;;;;5012560;28;20034;-82
2023/04/19 12:52:58;;;;;;;4.15;2.30;;;16.20;1.00;;;;;;5032420;28;20044;-77
2023/04/19 12:55:24;;;;;;;5.38;2.60;;;16.00;1.00;;;;;;5030498;28;20052;-78
2023/04/19 12:57:50;;;;;;;3.60;2.53;;;15.70;1.00;;;;;;5031655;28;20037;-79